createdAt,value
2017-02-23T00:00:15.516Z,7
2017-02-23T00:01:18.304Z,7
2017-02-23T00:02:20.765Z,7
2017-02-23T00:03:23.732Z,7
2017-02-23T00:04:26.190Z,7
2017-02-23T00:05:28.639Z,7
2017-02-23T00:06:31.144Z,7
2017-02-23T00:07:33.931Z,7
2017-02-23T00:08:36.386Z,7
2017-02-23T00:09:39.350Z,7
2017-02-23T00:10:41.813Z,6.9
2017-02-23T00:11:44.277Z,7
2017-02-23T00:12:46.759Z,7
2017-02-23T00:13:49.714Z,7
2017-02-23T00:14:52.160Z,6.9
2017-02-23T00:15:54.611Z,7
2017-02-23T00:16:57.578Z,7
2017-02-23T00:18:00.028Z,6.9
2017-02-23T00:19:02.492Z,7
2017-02-23T00:20:05.444Z,7
2017-02-23T00:21:07.735Z,7
2017-02-23T00:22:11.062Z,6.9
2017-02-23T00:23:13.028Z,7
2017-02-23T00:24:15.480Z,7
2017-02-23T00:25:18.442Z,7
2017-02-23T00:26:20.921Z,7
2017-02-23T00:27:23.391Z,6.9
2017-02-23T00:28:25.866Z,7
2017-02-23T00:29:28.821Z,7
2017-02-23T00:30:31.274Z,7
2017-02-23T00:31:33.726Z,6.9
2017-02-23T00:32:36.691Z,6.9
2017-02-23T00:33:39.158Z,6.9
2017-02-23T00:34:41.616Z,7
2017-02-23T00:35:44.467Z,7
2017-02-23T00:36:46.918Z,7
2017-02-23T00:37:49.382Z,7
2017-02-23T00:38:52.361Z,7
2017-02-23T00:39:54.811Z,7
2017-02-23T00:40:57.260Z,7
2017-02-23T00:41:59.716Z,6.9
2017-02-23T00:43:03.200Z,6.9
2017-02-23T00:44:05.147Z,6.9
2017-02-23T00:45:07.599Z,7
2017-02-23T00:46:10.549Z,7
2017-02-23T00:47:12.850Z,7
2017-02-23T00:48:15.814Z,6.9
2017-02-23T00:49:18.270Z,6.9
2017-02-23T00:50:21.245Z,6.9
2017-02-23T00:51:23.194Z,6.9
2017-02-23T00:52:26.171Z,6.9
2017-02-23T00:53:28.629Z,6.9
2017-02-23T00:54:31.107Z,6.9
2017-02-23T00:56:36.468Z,6.9
2017-02-23T00:57:38.916Z,6.9
2017-02-23T00:58:41.416Z,6.9
2017-02-23T00:59:44.205Z,6.9
2017-02-23T01:00:46.685Z,6.9
2017-02-23T01:02:51.893Z,6.9
2017-02-23T01:03:54.857Z,6.9
2017-02-23T01:04:57.339Z,6.9
2017-02-23T01:05:59.790Z,6.8
2017-02-23T01:07:02.758Z,6.8
2017-02-23T01:08:05.222Z,6.9
2017-02-23T01:09:07.682Z,6.8
2017-02-23T01:12:15.786Z,6.9
2017-02-23T01:13:18.244Z,6.9
2017-02-23T01:14:20.696Z,6.9
2017-02-23T01:15:23.156Z,6.9
2017-02-23T01:16:26.110Z,6.9
2017-02-23T01:17:28.588Z,6.8
2017-02-23T01:18:31.047Z,6.8
2017-02-23T01:19:34.541Z,6.8
2017-02-23T01:20:36.491Z,6.8
2017-02-23T01:21:38.963Z,6.8
2017-02-23T01:22:41.428Z,6.8
2017-02-23T01:23:44.387Z,6.8
2017-02-23T01:24:46.878Z,6.9
2017-02-23T01:25:49.177Z,6.9
2017-02-23T01:26:52.128Z,6.8
2017-02-23T01:27:54.586Z,6.8
2017-02-23T01:28:57.042Z,6.8
2017-02-23T01:29:59.995Z,6.8
2017-02-23T01:31:02.459Z,6.8
2017-02-23T01:32:04.915Z,6.8
2017-02-23T01:33:07.897Z,6.8
2017-02-23T01:34:10.377Z,6.8
2017-02-23T01:35:12.832Z,6.8
2017-02-23T01:36:15.819Z,6.8
2017-02-23T01:37:18.278Z,6.8
2017-02-23T01:38:20.739Z,6.8
2017-02-23T01:39:23.194Z,6.8
2017-02-23T01:40:26.151Z,6.8
2017-02-23T01:41:28.599Z,6.8
2017-02-23T01:42:31.049Z,6.8
2017-02-23T01:43:34.005Z,6.8
2017-02-23T01:44:36.457Z,6.8
2017-02-23T01:45:38.916Z,6.8
2017-02-23T01:46:41.371Z,6.8
2017-02-23T01:47:44.321Z,6.8
2017-02-23T01:48:46.674Z,6.8
2017-02-23T01:49:49.629Z,6.8
2017-02-23T01:50:52.081Z,6.8
2017-02-23T01:51:54.539Z,6.8
2017-02-23T01:52:56.991Z,6.8
2017-02-23T01:53:59.945Z,6.8
2017-02-23T01:55:02.401Z,6.8
2017-02-23T01:56:05.394Z,6.8
2017-02-23T01:57:07.677Z,6.8
2017-02-23T01:58:10.462Z,6.8
2017-02-23T01:59:12.753Z,6.8
2017-02-23T02:01:17.944Z,6.8
2017-02-23T02:02:21.443Z,6.8
2017-02-23T02:03:23.415Z,6.8
2017-02-23T02:04:25.881Z,6.8
2017-02-23T02:05:28.167Z,6.8
2017-02-23T02:06:31.664Z,6.8
2017-02-23T02:07:33.784Z,6.8
2017-02-23T02:08:36.252Z,6.8
2017-02-23T02:09:38.721Z,6.8
2017-02-23T02:10:41.687Z,6.8
2017-02-23T02:11:44.678Z,6.8
2017-02-23T02:12:46.636Z,6.8
2017-02-23T02:13:49.433Z,6.8
2017-02-23T02:14:51.886Z,6.8
2017-02-23T02:15:54.358Z,6.7
2017-02-23T02:16:57.315Z,6.8
2017-02-23T02:17:59.778Z,6.8
2017-02-23T02:19:02.252Z,6.8
2017-02-23T02:20:05.217Z,6.8
2017-02-23T02:21:07.673Z,6.7
2017-02-23T02:22:10.132Z,6.7
2017-02-23T02:23:12.580Z,6.7
2017-02-23T02:24:15.535Z,6.7
2017-02-23T02:25:17.822Z,6.7
2017-02-23T02:26:20.789Z,6.7
2017-02-23T02:27:23.247Z,6.6
2017-02-23T02:28:25.706Z,6.7
2017-02-23T02:29:28.662Z,6.6
2017-02-23T02:30:30.941Z,6.7
2017-02-23T02:31:33.423Z,6.7
2017-02-23T02:32:36.391Z,6.6
2017-02-23T02:33:38.852Z,6.6
2017-02-23T02:34:41.317Z,6.6
2017-02-23T02:35:44.278Z,6.6
2017-02-23T02:36:46.744Z,6.6
2017-02-23T02:37:49.233Z,6.6
2017-02-23T02:38:51.685Z,6.6
2017-02-23T02:39:54.655Z,6.6
2017-02-23T02:40:57.113Z,6.6
2017-02-23T02:41:59.581Z,6.6
2017-02-23T02:43:02.546Z,6.6
2017-02-23T02:44:05.000Z,6.6
2017-02-23T02:45:07.293Z,6.6
2017-02-23T02:46:10.240Z,6.6
2017-02-23T02:47:12.694Z,6.6
2017-02-23T02:48:15.702Z,6.6
2017-02-23T02:49:18.524Z,6.6
2017-02-23T02:50:20.472Z,6.6
2017-02-23T02:51:22.927Z,6.6
2017-02-23T02:55:04.941Z,6.6
2017-02-23T02:55:33.510Z,14.9
2017-02-23T02:56:35.966Z,6.6
2017-02-23T02:57:38.928Z,6.6
2017-02-23T02:58:41.385Z,6.6
2017-02-23T02:59:43.681Z,6.6
2017-02-23T03:00:46.636Z,6.6
2017-02-23T03:01:49.112Z,6.6
2017-02-23T03:02:51.565Z,6.6
2017-02-23T03:03:54.526Z,6.6
2017-02-23T03:04:56.998Z,6.6
2017-02-23T03:05:59.449Z,6.6
2017-02-23T03:07:02.409Z,6.6
2017-02-23T03:08:04.880Z,6.6
2017-02-23T03:09:07.333Z,6.6
2017-02-23T03:10:09.788Z,6.6
2017-02-23T03:11:12.754Z,6.6
2017-02-23T03:12:15.039Z,6.6
2017-02-23T03:13:17.999Z,6.6
2017-02-23T03:14:20.451Z,6.6
2017-02-23T03:15:22.925Z,6.6
2017-02-23T03:17:28.327Z,6.5
2017-02-23T03:18:30.775Z,6.5
2017-02-23T03:19:33.266Z,6.5
2017-02-23T03:20:36.218Z,6.5
2017-02-23T03:21:38.694Z,6.5
2017-02-23T03:22:41.147Z,6.5
2017-02-23T03:23:44.102Z,6.5
2017-02-23T03:24:46.215Z,6.5
2017-02-23T03:25:49.700Z,6.5
2017-02-23T03:26:51.648Z,6.5
2017-02-23T03:27:54.142Z,6.5
2017-02-23T03:28:57.101Z,6.5
2017-02-23T03:29:59.553Z,6.5
2017-02-23T03:31:02.008Z,6.5
2017-02-23T03:32:30.155Z,6.5
2017-02-23T03:33:07.438Z,6.5
2017-02-23T03:34:09.723Z,6.5
2017-02-23T03:35:12.571Z,6.5
2017-02-23T03:36:15.357Z,6.6
2017-02-23T03:40:26.655Z,6.5
2017-02-23T03:41:28.100Z,6.5
2017-02-23T03:42:30.599Z,6.5
2017-02-23T03:43:33.576Z,6.5
2017-02-23T03:44:36.555Z,6.5
2017-02-23T03:45:38.536Z,6.6
2017-02-23T03:46:41.007Z,6.6
2017-02-23T03:47:43.800Z,6.5
2017-02-23T03:48:46.083Z,6.5
2017-02-23T03:49:48.879Z,6.6
2017-02-23T03:50:51.844Z,6.5
2017-02-23T03:51:54.305Z,6.5
2017-02-23T03:52:56.760Z,6.5
2017-02-23T03:53:59.213Z,6.5
2017-02-23T03:55:02.177Z,6.5
2017-02-23T03:56:04.632Z,6.5
2017-02-23T03:57:07.102Z,6.5
2017-02-23T03:58:10.058Z,6.5
2017-02-23T03:59:12.588Z,6.6
2017-02-23T04:00:15.036Z,6.6
2017-02-23T04:01:17.501Z,6.6
2017-02-23T04:02:20.319Z,6.6
2017-02-23T04:03:22.774Z,6.6
2017-02-23T04:04:25.229Z,6.5
2017-02-23T04:05:28.044Z,6.6
2017-02-23T04:06:30.509Z,6.6
2017-02-23T04:07:33.464Z,6.6
2017-02-23T04:08:35.915Z,6.6
2017-02-23T04:09:38.374Z,6.6
2017-02-23T04:10:40.859Z,6.6
2017-02-23T04:11:43.658Z,6.6
2017-02-23T04:12:46.123Z,6.6
2017-02-23T04:13:49.079Z,6.6
2017-02-23T04:14:51.528Z,6.6
2017-02-23T04:15:54.008Z,6.6
2017-02-23T04:16:56.455Z,6.6
2017-02-23T04:17:59.409Z,6.6
2017-02-23T04:19:01.862Z,6.6
2017-02-23T04:20:04.350Z,6.6
2017-02-23T04:21:07.310Z,6.6
2017-02-23T04:22:10.296Z,6.6
2017-02-23T04:23:12.771Z,6.6
2017-02-23T04:24:14.726Z,6.6
2017-02-23T04:25:18.211Z,6.6
2017-02-23T04:26:20.163Z,6.6
2017-02-23T04:27:22.613Z,6.6
2017-02-23T04:28:25.571Z,6.6
2017-02-23T04:29:28.026Z,6.6
2017-02-23T04:30:30.479Z,6.6
2017-02-23T04:31:32.933Z,6.6
2017-02-23T04:32:35.901Z,6.6
2017-02-23T04:33:38.362Z,6.6
2017-02-23T04:34:40.831Z,6.6
2017-02-23T04:35:43.792Z,6.6
2017-02-23T04:36:46.276Z,6.6
2017-02-23T04:37:49.066Z,6.6
2017-02-23T04:38:51.520Z,6.6
2017-02-23T04:39:53.983Z,6.6
2017-02-23T04:40:56.432Z,6.6
2017-02-23T04:41:59.386Z,6.6
2017-02-23T04:43:01.845Z,6.6
2017-02-23T04:44:04.294Z,6.6
2017-02-23T04:45:07.263Z,6.6
2017-02-23T04:46:09.560Z,6.6
2017-02-23T04:48:14.937Z,6.6
2017-02-23T04:49:17.398Z,6.6
2017-02-23T04:50:19.867Z,6.6
2017-02-23T04:51:22.341Z,6.6
2017-02-23T04:52:25.300Z,6.6
2017-02-23T04:53:27.761Z,6.6
2017-02-23T04:54:30.739Z,6.6
2017-02-23T04:55:33.199Z,6.6
2017-02-23T04:56:35.661Z,6.6
2017-02-23T04:57:38.113Z,6.6
2017-02-23T04:58:41.091Z,6.6
2017-02-23T04:59:43.543Z,6.6
2017-02-23T05:00:45.828Z,6.6
2017-02-23T05:01:48.779Z,6.6
2017-02-23T05:02:51.764Z,6.6
2017-02-23T05:03:53.722Z,6.6
2017-02-23T05:04:56.681Z,6.6
2017-02-23T05:05:59.133Z,6.6
2017-02-23T05:07:01.590Z,6.6
2017-02-23T05:08:04.574Z,6.6
2017-02-23T05:09:07.027Z,6.6
2017-02-23T05:10:09.483Z,6.6
2017-02-23T05:11:12.445Z,6.6
2017-02-23T05:12:14.897Z,6.6
2017-02-23T05:13:17.351Z,6.6
2017-02-23T05:14:19.636Z,6.6
2017-02-23T05:15:22.425Z,6.6
2017-02-23T05:16:25.224Z,6.6
2017-02-23T05:17:27.688Z,6.6
2017-02-23T05:18:30.489Z,6.6
2017-02-23T05:19:32.939Z,6.6
2017-02-23T05:20:35.931Z,6.6
2017-02-23T05:21:38.385Z,6.6
2017-02-23T05:22:40.835Z,6.6
2017-02-23T05:24:46.225Z,6.6
2017-02-23T05:25:48.349Z,6.6
2017-02-23T05:26:51.310Z,6.6
2017-02-23T05:27:54.292Z,6.6
2017-02-23T05:28:56.764Z,6.6
2017-02-23T05:29:59.213Z,6.6
2017-02-23T05:31:01.705Z,6.6
2017-02-23T05:32:03.993Z,6.6
2017-02-23T05:33:06.955Z,6.6
2017-02-23T05:34:09.408Z,6.6
2017-02-23T05:36:14.673Z,6.6
2017-02-23T05:37:17.636Z,6.6
2017-02-23T05:38:20.085Z,6.6
2017-02-23T05:39:22.543Z,6.6
2017-02-23T05:40:25.009Z,6.6
2017-02-23T05:41:28.493Z,6.6
2017-02-23T05:42:30.476Z,6.6
2017-02-23T05:43:32.959Z,6.6
2017-02-23T05:44:35.426Z,6.6
2017-02-23T05:45:38.399Z,6.6
2017-02-23T05:46:40.869Z,6.6
2017-02-23T05:47:43.327Z,6.6
2017-02-23T05:48:46.281Z,6.6
2017-02-23T05:49:48.740Z,6.6
2017-02-23T05:50:51.196Z,6.6
2017-02-23T05:51:53.649Z,6.6
2017-02-23T05:52:56.436Z,6.6
2017-02-23T05:53:58.890Z,6.6
2017-02-23T05:55:01.859Z,6.6
2017-02-23T05:56:04.312Z,6.6
2017-02-23T05:57:06.789Z,6.6
2017-02-23T05:58:09.758Z,6.6
2017-02-23T05:59:12.051Z,6.6
2017-02-23T06:00:14.669Z,6.6
2017-02-23T06:01:17.139Z,6.6
2017-02-23T06:02:20.125Z,6.6
2017-02-23T06:03:22.575Z,6.6
2017-02-23T06:04:25.037Z,6.6
2017-02-23T06:05:27.992Z,6.6
2017-02-23T06:06:30.193Z,6.6
2017-02-23T06:07:33.146Z,6.6
2017-02-23T06:09:38.015Z,6.6
2017-02-23T06:10:41.505Z,6.6
2017-02-23T06:11:43.485Z,6.6
2017-02-23T06:12:46.803Z,6.6
2017-02-23T06:13:48.761Z,6.6
2017-02-23T06:14:51.212Z,6.6
2017-02-23T06:15:53.664Z,6.6
2017-02-23T06:16:56.460Z,6.6
2017-02-23T06:17:58.920Z,6.6
2017-02-23T06:19:01.886Z,6.6
2017-02-23T06:20:04.344Z,6.6
2017-02-23T06:22:09.707Z,6.6
2017-02-23T06:23:12.170Z,6.6
2017-02-23T06:24:14.471Z,6.6
2017-02-23T06:25:17.429Z,6.6
2017-02-23T06:26:19.899Z,6.6
2017-02-23T06:27:22.352Z,6.6
2017-02-23T06:28:25.304Z,6.6
2017-02-23T06:29:27.771Z,6.6
2017-02-23T06:30:30.758Z,6.6
2017-02-23T06:31:32.714Z,6.6
2017-02-23T06:32:35.668Z,6.6
2017-02-23T06:33:38.121Z,6.6
2017-02-23T06:34:40.604Z,6.6
2017-02-23T06:35:43.559Z,6.6
2017-02-23T06:36:46.035Z,6.6
2017-02-23T06:37:48.503Z,6.7
2017-02-23T06:38:51.481Z,6.6
2017-02-23T06:39:53.930Z,6.7
2017-02-23T06:40:56.408Z,6.7
2017-02-23T06:41:58.859Z,6.7
2017-02-23T06:43:01.649Z,6.7
2017-02-23T06:44:04.100Z,6.7
2017-02-23T06:45:07.072Z,6.7
2017-02-23T06:46:09.545Z,6.7
2017-02-23T06:47:12.018Z,6.7
2017-02-23T06:48:14.478Z,6.7
2017-02-23T06:50:19.847Z,6.7
2017-02-23T06:52:25.229Z,6.7
2017-02-23T06:53:27.688Z,6.7
2017-02-23T06:54:30.150Z,6.7
2017-02-23T06:55:32.947Z,6.7
2017-02-23T06:56:35.923Z,6.7
2017-02-23T06:57:38.224Z,6.7
2017-02-23T06:58:40.673Z,6.7
2017-02-23T06:59:43.627Z,6.7
2017-02-23T07:00:45.913Z,6.7
2017-02-23T07:01:48.883Z,6.7
2017-02-23T07:02:51.335Z,6.7
2017-02-23T07:04:56.707Z,6.7
2017-02-23T07:05:59.687Z,6.8
2017-02-23T07:07:01.642Z,6.7
2017-02-23T07:08:04.095Z,6.7
2017-02-23T07:09:07.048Z,6.8
2017-02-23T07:10:09.363Z,6.8
2017-02-23T07:11:12.186Z,6.8
2017-02-23T07:12:14.805Z,6.8
2017-02-23T07:13:17.257Z,6.8
2017-02-23T07:14:20.254Z,6.8
2017-02-23T07:15:22.712Z,6.8
2017-02-23T07:16:25.159Z,6.8
2017-02-23T07:17:27.954Z,6.8
2017-02-23T07:18:30.929Z,6.8
2017-02-23T07:19:33.228Z,6.8
2017-02-23T07:20:35.682Z,6.8
2017-02-23T07:21:38.135Z,6.8
2017-02-23T07:22:40.929Z,6.8
2017-02-23T07:23:43.396Z,6.8
2017-02-23T07:24:46.369Z,6.8
2017-02-23T07:25:48.817Z,6.8
2017-02-23T07:26:51.271Z,6.8
2017-02-23T07:27:53.721Z,6.8
2017-02-23T07:31:01.998Z,6.8
2017-02-23T07:32:04.452Z,6.8
2017-02-23T07:33:06.903Z,6.8
2017-02-23T07:34:09.715Z,6.8
2017-02-23T07:35:12.170Z,6.8
2017-02-23T07:36:14.623Z,6.8
2017-02-23T07:37:17.577Z,6.8
2017-02-23T07:38:20.026Z,6.8
2017-02-23T07:39:22.499Z,6.8
2017-02-23T07:40:25.461Z,6.8
2017-02-23T07:41:28.438Z,6.8
2017-02-23T07:42:30.387Z,6.8
2017-02-23T07:43:33.189Z,6.8
2017-02-23T07:44:35.643Z,6.8
2017-02-23T07:45:38.615Z,6.8
2017-02-23T07:46:41.093Z,6.8
2017-02-23T07:47:43.573Z,6.8
2017-02-23T07:48:46.031Z,6.8
2017-02-23T07:49:49.026Z,6.8
2017-02-23T07:50:51.498Z,6.8
2017-02-23T07:51:54.493Z,6.8
2017-02-23T07:52:56.944Z,6.8
2017-02-23T07:53:59.402Z,6.8
2017-02-23T07:55:01.854Z,6.8
2017-02-23T07:56:04.345Z,6.8
2017-02-23T07:57:07.300Z,6.8
2017-02-23T07:58:09.607Z,6.8
2017-02-23T07:59:12.401Z,6.8
2017-02-23T08:00:14.864Z,6.8
2017-02-23T08:02:20.757Z,6.8
2017-02-23T08:03:22.545Z,6.8
2017-02-23T08:04:25.520Z,6.8
2017-02-23T08:05:27.978Z,6.8
2017-02-23T08:06:31.002Z,6.8
2017-02-23T08:07:33.820Z,6.8
2017-02-23T08:08:35.605Z,6.9
2017-02-23T08:09:38.579Z,6.9
2017-02-23T08:10:41.556Z,6.9
2017-02-23T08:11:44.007Z,6.9
2017-02-23T08:12:46.288Z,6.9
2017-02-23T08:13:49.086Z,6.9
2017-02-23T08:14:51.374Z,6.9
2017-02-23T08:15:54.331Z,6.9
2017-02-23T08:16:56.798Z,6.9
2017-02-23T08:17:59.248Z,6.9
2017-02-23T08:19:02.042Z,6.9
2017-02-23T08:20:04.525Z,6.9
2017-02-23T08:21:07.483Z,6.9
2017-02-23T08:22:09.938Z,6.9
2017-02-23T08:23:12.724Z,6.9
2017-02-23T08:24:15.175Z,6.9
2017-02-23T08:25:17.623Z,6.9
2017-02-23T08:26:20.582Z,7
2017-02-23T08:27:23.405Z,6.9
2017-02-23T08:28:25.869Z,6.9
2017-02-23T08:29:28.150Z,7
2017-02-23T08:30:31.106Z,7
2017-02-23T08:31:33.553Z,7
2017-02-23T08:32:36.019Z,7
2017-02-23T08:33:38.808Z,7
2017-02-23T08:34:41.620Z,7
2017-02-23T08:35:44.066Z,7
2017-02-23T08:36:46.525Z,7
2017-02-23T08:37:49.480Z,7
2017-02-23T08:39:54.344Z,7
2017-02-23T08:40:57.331Z,7
2017-02-23T08:41:59.786Z,7
2017-02-23T08:43:02.157Z,7
2017-02-23T08:44:04.955Z,7
2017-02-23T08:45:07.427Z,7
2017-02-23T08:46:10.228Z,7
2017-02-23T08:47:12.694Z,7
2017-02-23T08:48:15.660Z,7
2017-02-23T08:49:18.109Z,7
2017-02-23T08:50:20.582Z,7
2017-02-23T08:51:23.053Z,7
2017-02-23T08:52:25.845Z,7
2017-02-23T08:53:28.308Z,7
2017-02-23T08:54:31.272Z,7
2017-02-23T08:55:34.084Z,7
2017-02-23T08:56:37.065Z,7
2017-02-23T08:57:39.569Z,7
2017-02-23T08:58:41.544Z,7
2017-02-23T08:59:44.006Z,7
2017-02-23T09:00:46.975Z,7
2017-02-23T09:01:49.427Z,7.1
2017-02-23T09:02:51.718Z,7
2017-02-23T09:03:54.683Z,7
2017-02-23T09:04:57.133Z,7
2017-02-23T09:06:00.086Z,7
2017-02-23T09:07:02.549Z,7.1
2017-02-23T09:08:05.376Z,7
2017-02-23T09:09:07.840Z,7
2017-02-23T09:10:10.318Z,7
2017-02-23T09:11:13.106Z,7
2017-02-23T09:12:15.731Z,7
2017-02-23T09:13:18.191Z,7
2017-02-23T09:14:21.162Z,7.1
2017-02-23T09:15:23.614Z,7.1
2017-02-23T09:16:26.074Z,7.1
2017-02-23T09:17:28.866Z,7.1
2017-02-23T09:18:31.315Z,7.1
2017-02-23T09:19:34.102Z,7.1
2017-02-23T09:20:36.591Z,7.1
2017-02-23T09:21:39.560Z,7.1
2017-02-23T09:22:42.020Z,7.1
2017-02-23T09:23:44.474Z,7.1
2017-02-23T09:24:47.435Z,7.1
2017-02-23T09:25:49.887Z,7.1
2017-02-23T09:26:52.340Z,7.1
2017-02-23T09:27:55.310Z,7.1
2017-02-23T09:28:57.759Z,7.1
2017-02-23T09:30:00.732Z,7.1
2017-02-23T09:32:05.600Z,7.1
2017-02-23T09:33:08.060Z,7.1
2017-02-23T09:34:10.680Z,7.1
2017-02-23T09:35:13.646Z,7.1
2017-02-23T09:36:16.105Z,7.1
2017-02-23T09:37:18.578Z,7.1
2017-02-23T09:38:21.539Z,7.1
2017-02-23T09:39:24.006Z,7.1
2017-02-23T09:40:26.475Z,7.1
2017-02-23T09:41:29.432Z,7.1
2017-02-23T09:42:31.900Z,7.1
2017-02-23T09:43:34.356Z,7.2
2017-02-23T09:44:36.839Z,7.2
2017-02-23T09:45:39.606Z,7.2
2017-02-23T09:46:42.564Z,7.2
2017-02-23T09:47:45.019Z,7.2
2017-02-23T09:48:47.475Z,7.2
2017-02-23T09:49:50.437Z,7.2
2017-02-23T09:50:52.929Z,7.2
2017-02-23T09:51:55.387Z,7.2
2017-02-23T09:52:57.885Z,7.3
2017-02-23T09:54:00.857Z,7.2
2017-02-23T09:55:03.321Z,7.3
2017-02-23T09:56:06.651Z,7.3
2017-02-23T09:57:08.609Z,7.3
2017-02-23T09:58:11.059Z,7.3
2017-02-23T09:59:14.024Z,7.3
2017-02-23T10:00:16.836Z,7.3
2017-02-23T10:01:19.845Z,7.3
2017-02-23T10:02:21.790Z,7.3
2017-02-23T10:03:24.111Z,7.3
2017-02-23T10:04:27.068Z,7.3
2017-02-23T10:05:29.519Z,7.3
2017-02-23T10:06:32.473Z,7.3
2017-02-23T10:07:34.932Z,7.3
2017-02-23T10:08:37.225Z,7.3
2017-02-23T10:09:40.181Z,7.3
2017-02-23T10:10:42.631Z,7.3
2017-02-23T10:11:45.603Z,7.3
2017-02-23T10:12:48.073Z,7.3
2017-02-23T10:13:50.523Z,7.4
2017-02-23T10:14:53.477Z,7.4
2017-02-23T10:15:55.932Z,7.3
2017-02-23T10:16:58.391Z,7.4
2017-02-23T10:18:01.347Z,7.4
2017-02-23T10:19:03.817Z,7.4
2017-02-23T10:20:06.299Z,7.4
2017-02-23T10:21:09.258Z,7.4
2017-02-23T10:22:11.707Z,7.4
2017-02-23T10:23:14.666Z,7.4
2017-02-23T10:24:17.129Z,7.4
2017-02-23T10:25:19.588Z,7.4
2017-02-23T10:27:24.983Z,7.4
2017-02-23T10:28:27.441Z,7.5
2017-02-23T10:29:30.400Z,7.5
2017-02-23T10:30:32.873Z,7.5
2017-02-23T10:31:35.667Z,7.5
2017-02-23T10:32:38.130Z,7.5
2017-02-23T10:33:40.940Z,7.5
2017-02-23T10:34:43.405Z,7.5
2017-02-23T10:35:45.867Z,7.5
2017-02-23T10:36:48.833Z,7.5
2017-02-23T10:37:51.286Z,7.5
2017-02-23T10:38:53.573Z,7.5
2017-02-23T10:39:56.533Z,7.5
2017-02-23T10:40:59.002Z,7.5
2017-02-23T10:42:01.798Z,7.5
2017-02-23T10:43:04.783Z,7.5
2017-02-23T10:44:07.240Z,7.5
2017-02-23T10:45:09.705Z,7.5
2017-02-23T10:46:12.186Z,7.5
2017-02-23T10:47:15.152Z,7.5
2017-02-23T10:48:17.609Z,7.5
2017-02-23T10:49:20.063Z,7.5
2017-02-23T10:50:23.015Z,7.5
2017-02-23T10:51:25.491Z,7.5
2017-02-23T10:52:28.448Z,7.5
2017-02-23T10:53:30.903Z,7.5
2017-02-23T10:54:33.698Z,7.5
2017-02-23T10:55:36.692Z,7.5
2017-02-23T10:56:38.644Z,7.5
2017-02-23T10:57:42.133Z,7.5
2017-02-23T10:58:44.077Z,7.5
2017-02-23T10:59:46.531Z,7.5
2017-02-23T11:00:49.502Z,7.5
2017-02-23T11:01:51.952Z,7.5
2017-02-23T11:02:54.944Z,7.5
2017-02-23T11:03:57.924Z,7.5
2017-02-23T11:04:59.875Z,7.5
2017-02-23T11:06:02.329Z,7.5
2017-02-23T11:07:05.301Z,7.5
2017-02-23T11:08:07.766Z,7.5
2017-02-23T11:09:10.551Z,7.5
2017-02-23T11:10:12.672Z,7.5
2017-02-23T11:11:15.639Z,7.5
2017-02-23T11:12:18.101Z,7.5
2017-02-23T11:13:21.061Z,7.5
2017-02-23T11:14:23.515Z,7.5
2017-02-23T11:15:25.965Z,7.5
2017-02-23T11:16:28.932Z,7.5
2017-02-23T11:17:31.046Z,7.5
2017-02-23T11:18:33.840Z,7.5
2017-02-23T11:19:36.795Z,7.5
2017-02-23T11:20:39.095Z,7.5
2017-02-23T11:21:42.079Z,7.5
2017-02-23T11:22:44.527Z,7.5
2017-02-23T11:23:46.976Z,7.5
2017-02-23T11:24:49.931Z,7.5
2017-02-23T11:25:52.394Z,7.5
2017-02-23T11:27:57.759Z,7.5
2017-02-23T11:29:00.220Z,7.5
2017-02-23T11:30:03.205Z,7.5
2017-02-23T11:32:08.005Z,7.5
2017-02-23T11:33:10.975Z,7.5
2017-02-23T11:34:13.326Z,7.5
2017-02-23T11:35:16.298Z,7.5
2017-02-23T11:36:18.750Z,7.5
2017-02-23T11:37:21.203Z,7.5
2017-02-23T11:38:24.177Z,7.5
2017-02-23T11:39:26.484Z,7.5
2017-02-23T11:40:29.453Z,7.5
2017-02-23T11:41:32.448Z,7.5
2017-02-23T11:42:34.421Z,7.5
2017-02-23T11:43:37.372Z,7.5
2017-02-23T11:44:39.657Z,7.5
2017-02-23T11:45:42.613Z,7.5
2017-02-23T11:46:45.064Z,7.5
2017-02-23T11:47:47.546Z,7.5
2017-02-23T11:49:52.764Z,7.5
2017-02-23T11:50:55.744Z,7.5
2017-02-23T11:51:58.213Z,7.6
2017-02-23T11:53:00.664Z,7.6
2017-02-23T11:54:03.622Z,7.5
2017-02-23T11:55:06.094Z,7.6
2017-02-23T11:56:08.561Z,7.6
2017-02-23T11:57:11.517Z,7.6
2017-02-23T11:58:13.800Z,7.6
2017-02-23T11:59:16.753Z,7.6
2017-02-23T12:00:19.218Z,7.6
2017-02-23T12:01:22.532Z,7.6
2017-02-23T12:03:27.390Z,7.6
2017-02-23T12:04:29.840Z,7.6
2017-02-23T12:05:32.125Z,7.6
2017-02-23T12:06:35.106Z,7.6
2017-02-23T12:07:37.551Z,7.6
2017-02-23T12:08:40.346Z,7.6
2017-02-23T12:09:42.792Z,7.6
2017-02-23T12:11:48.336Z,7.6
2017-02-23T12:12:50.804Z,7.6
2017-02-23T12:13:53.778Z,7.6
2017-02-23T12:14:56.234Z,7.6
2017-02-23T12:15:58.708Z,7.6
2017-02-23T12:17:01.678Z,7.6
2017-02-23T12:18:04.149Z,7.6
2017-02-23T12:19:06.604Z,7.6
2017-02-23T12:20:09.399Z,7.6
2017-02-23T12:21:11.682Z,7.6
2017-02-23T12:22:14.641Z,7.6
2017-02-23T12:23:17.092Z,7.6
2017-02-23T12:24:20.047Z,7.6
2017-02-23T12:25:22.504Z,7.7
2017-02-23T12:26:24.954Z,7.7
2017-02-23T12:27:27.922Z,7.7
2017-02-23T12:28:30.383Z,7.7
2017-02-23T12:29:32.836Z,7.7
2017-02-23T12:30:35.818Z,7.7
2017-02-23T12:31:38.285Z,7.7
2017-02-23T12:32:41.274Z,7.7
2017-02-23T12:33:44.082Z,7.7
2017-02-23T12:34:45.859Z,7.7
2017-02-23T12:35:48.815Z,7.7
2017-02-23T12:36:51.767Z,7.7
2017-02-23T12:37:54.245Z,7.7
2017-02-23T12:38:56.710Z,7.7
2017-02-23T12:39:59.683Z,7.7
2017-02-23T12:41:01.973Z,7.7
2017-02-23T12:42:04.938Z,7.7
2017-02-23T12:43:07.410Z,7.7
2017-02-23T12:44:09.870Z,7.7
2017-02-23T12:45:12.654Z,7.7
2017-02-23T12:46:15.984Z,7.7
2017-02-23T12:47:19.028Z,7.7
2017-02-23T12:48:20.491Z,7.7
2017-02-23T12:49:22.943Z,7.7
2017-02-23T12:50:25.916Z,7.7
2017-02-23T12:51:28.378Z,7.7
2017-02-23T12:52:30.843Z,7.7
2017-02-23T12:53:33.802Z,7.8
2017-02-23T12:54:36.282Z,7.8
2017-02-23T12:55:38.993Z,7.8
2017-02-23T12:56:41.454Z,7.8
2017-02-23T12:58:46.818Z,7.8
2017-02-23T12:59:49.270Z,7.8
2017-02-23T13:00:52.238Z,7.8
2017-02-23T13:01:54.689Z,7.8
2017-02-23T13:02:58.167Z,7.8
2017-02-23T13:04:00.315Z,7.8
2017-02-23T13:05:02.780Z,7.8
2017-02-23T13:06:05.236Z,7.8
2017-02-23T13:07:08.064Z,7.8
2017-02-23T13:08:11.080Z,7.8
2017-02-23T13:09:12.866Z,7.8
2017-02-23T13:10:15.844Z,7.8
2017-02-23T13:11:18.300Z,7.8
2017-02-23T13:12:21.781Z,7.8
2017-02-23T13:13:23.741Z,7.8
2017-02-23T13:14:26.574Z,7.8
2017-02-23T13:15:29.034Z,7.8
2017-02-23T13:16:31.486Z,7.8
2017-02-23T13:17:34.438Z,7.8
2017-02-23T13:18:36.903Z,7.8
2017-02-23T13:19:39.352Z,7.8
2017-02-23T13:20:41.971Z,7.8
2017-02-23T13:21:44.967Z,7.8
2017-02-23T13:22:47.964Z,7.8
2017-02-23T13:23:49.932Z,7.8
2017-02-23T13:24:52.910Z,7.8
2017-02-23T13:25:55.377Z,7.8
2017-02-23T13:26:57.834Z,7.8
2017-02-23T13:28:00.652Z,7.8
2017-02-23T13:29:03.104Z,7.8
2017-02-23T13:30:05.905Z,7.8
2017-02-23T13:31:08.191Z,7.8
2017-02-23T13:32:11.152Z,7.8
2017-02-23T13:33:14.106Z,7.8
2017-02-23T13:34:16.571Z,7.8
2017-02-23T13:35:19.024Z,7.8
2017-02-23T13:37:24.396Z,7.9
2017-02-23T13:38:26.845Z,7.9
2017-02-23T13:39:29.799Z,7.9
2017-02-23T13:41:35.168Z,7.9
2017-02-23T13:42:37.624Z,7.9
2017-02-23T13:43:40.612Z,7.9
2017-02-23T13:44:42.898Z,7.9
2017-02-23T13:45:45.364Z,7.9
2017-02-23T13:46:48.334Z,7.9
2017-02-23T13:47:50.626Z,7.9
2017-02-23T13:48:53.099Z,7.9
2017-02-23T13:49:55.911Z,7.9
2017-02-23T13:50:58.873Z,7.9
2017-02-23T13:52:01.328Z,7.9
2017-02-23T13:53:03.797Z,7.9
2017-02-23T13:54:06.583Z,7.9
2017-02-23T13:55:09.036Z,7.9
2017-02-23T13:56:12.003Z,7.9
2017-02-23T13:57:14.285Z,7.9
2017-02-23T13:58:17.236Z,7.9
2017-02-23T13:59:19.685Z,7.9
2017-02-23T14:00:22.478Z,7.9
2017-02-23T14:01:24.761Z,7.9
2017-02-23T14:02:27.729Z,8
2017-02-23T14:03:30.184Z,8
2017-02-23T14:04:33.138Z,8
2017-02-23T14:05:35.455Z,7.9
2017-02-23T14:06:38.408Z,7.9
2017-02-23T14:07:40.871Z,8
2017-02-23T14:08:43.347Z,8
2017-02-23T14:09:46.309Z,8
2017-02-23T14:10:48.762Z,8
2017-02-23T14:11:51.556Z,8
2017-02-23T14:12:54.009Z,8
2017-02-23T14:13:57.486Z,8
2017-02-23T14:14:59.443Z,8
2017-02-23T14:16:01.915Z,8
2017-02-23T14:17:04.877Z,8
2017-02-23T14:18:07.363Z,8
2017-02-23T14:19:09.652Z,8
2017-02-23T14:20:12.605Z,8
2017-02-23T14:21:15.397Z,8
2017-02-23T14:22:17.880Z,8
2017-02-23T14:23:20.336Z,8
2017-02-23T14:26:28.617Z,8
2017-02-23T14:27:31.070Z,8
2017-02-23T14:28:33.549Z,8
2017-02-23T14:29:36.518Z,8
2017-02-23T14:30:38.985Z,8
2017-02-23T14:31:41.439Z,8
2017-02-23T14:32:44.394Z,8
2017-02-23T14:33:46.860Z,8
2017-02-23T14:34:49.863Z,8
2017-02-23T14:35:52.337Z,8
2017-02-23T14:36:54.623Z,8
2017-02-23T14:37:57.576Z,8
2017-02-23T14:39:00.031Z,8
2017-02-23T14:40:02.484Z,8
2017-02-23T14:41:05.290Z,8
2017-02-23T14:42:08.244Z,8
2017-02-23T14:43:11.245Z,8
2017-02-23T14:44:13.089Z,8
2017-02-23T14:46:18.789Z,8
2017-02-23T14:47:21.259Z,8
2017-02-23T14:48:23.712Z,8
2017-02-23T14:49:26.664Z,8
2017-02-23T14:51:31.546Z,8.1
2017-02-23T14:52:34.347Z,8
2017-02-23T14:53:36.823Z,8
2017-02-23T14:54:39.780Z,8
2017-02-23T14:55:42.242Z,8.1
2017-02-23T14:56:45.199Z,8
2017-02-23T14:57:47.657Z,8
2017-02-23T14:58:50.108Z,8.1
2017-02-23T14:59:53.060Z,8
2017-02-23T15:00:55.538Z,8.1
2017-02-23T15:01:58.341Z,8.1
2017-02-23T15:03:00.807Z,8.1
2017-02-23T15:04:03.259Z,8.1
2017-02-23T15:05:06.216Z,8.1
2017-02-23T15:07:11.595Z,8.1
2017-02-23T15:09:16.467Z,8.1
2017-02-23T15:10:19.421Z,8.1
2017-02-23T15:11:21.708Z,8.1